Time,TemperatureF,DewpointF,PressureIn,WindDirection,WindDirectionDegrees,WindSpeedMPH,WindSpeedGustMPH,Humidity,HourlyPrecipIn,Conditions,Clouds,dailyrainin,SoftwareType,DateUTC
2013-05-01 00:00:00,69.3,29.9,29.77,North,-999,0.0,0.0,23,0.00,,,-99.99,WeatherLink 5.7,2013-05-01 05:00:00,
2013-05-01 00:30:00,69.4,30.0,29.77,North,-999,0.0,0.0,23,0.00,,,-99.99,WeatherLink 5.7,2013-05-01 05:30:00,
2013-05-01 01:00:00,69.5,30.0,29.77,North,-999,0.0,0.0,23,0.00,,,-99.99,WeatherLink 5.7,2013-05-01 06:00:00,
2013-05-01 01:30:00,69.5,30.0,29.75,North,-999,0.0,0.0,23,0.00,,,-99.99,WeatherLink 5.7,2013-05-01 06:30:00,
2013-05-01 02:00:00,69.2,29.8,29.73,North,-999,0.0,0.0,23,0.01,,,-99.99,WeatherLink 5.7,2013-05-01 07:00:00,
2013-05-01 02:30:00,69.0,29.6,29.73,ENE,67,0.0,3.0,23,0.01,,,-99.99,WeatherLink 5.7,2013-05-01 07:30:00,
2013-05-01 03:00:00,69.1,29.7,29.72,North,-999,0.0,0.0,23,0.00,,,-99.99,WeatherLink 5.7,2013-05-01 08:00:00,
2013-05-01 03:30:00,69.3,29.9,29.72,North,-999,0.0,0.0,23,0.00,,,-99.99,WeatherLink 5.7,2013-05-01 08:30:00,
2013-05-01 04:00:00,69.3,30.9,29.73,North,-999,0.0,0.0,24,0.00,,,-99.99,WeatherLink 5.7,2013-05-01 09:00:00,
2013-05-01 04:30:00,69.4,31.0,29.73,North,-999,0.0,0.0,24,0.00,,,-99.99,WeatherLink 5.7,2013-05-01 09:30:00,
2013-05-01 05:00:00,69.0,30.7,29.74,North,-999,0.0,0.0,24,0.00,,,-99.99,WeatherLink 5.7,2013-05-01 10:00:00,
2013-05-01 05:30:00,68.8,30.5,29.74,North,-999,0.0,0.0,24,0.00,,,-99.99,WeatherLink 5.7,2013-05-01 10:30:00,
2013-05-01 06:00:00,68.5,30.3,29.75,North,-999,0.0,0.0,24,0.00,,,-99.99,WeatherLink 5.7,2013-05-01 11:00:00,
2013-05-01 06:30:00,68.3,30.1,29.75,ENE,67,0.0,4.0,24,0.00,,,-99.99,WeatherLink 5.7,2013-05-01 11:30:00,
2013-05-01 07:00:00,68.6,30.3,29.77,ENE,67,0.0,4.0,24,0.00,,,-99.99,WeatherLink 5.7,2013-05-01 12:00:00,
2013-05-01 07:30:00,69.9,31.4,29.78,North,-999,0.0,0.0,24,0.00,,,-99.99,WeatherLink 5.7,2013-05-01 12:30:00,
2013-05-01 08:00:00,70.6,32.0,29.78,ENE,67,3.0,9.0,24,0.00,,,-99.99,WeatherLink 5.7,2013-05-01 13:00:00,
2013-05-01 08:30:00,71.4,31.6,29.79,East,90,4.0,9.0,23,0.00,,,-99.99,WeatherLink 5.7,2013-05-01 13:30:00,
2013-05-01 09:00:00,72.2,32.3,29.79,East,90,3.0,9.0,23,0.00,,,-99.99,WeatherLink 5.7,2013-05-01 14:00:00,
2013-05-01 09:30:00,73.3,33.2,29.79,East,90,3.0,9.0,23,0.00,,,-99.99,WeatherLink 5.7,2013-05-01 14:30:00,
2013-05-01 10:00:00,74.5,32.0,29.79,East,90,3.0,12.0,21,0.00,,,-99.99,WeatherLink 5.7,2013-05-01 15:00:00,
2013-05-01 10:30:00,75.7,30.5,29.79,ESE,112,3.0,13.0,19,0.00,,,-99.99,WeatherLink 5.7,2013-05-01 15:30:00,
2013-05-01 11:00:00,75.9,29.3,29.79,ESE,112,4.0,15.0,18,0.00,,,-99.99,WeatherLink 5.7,2013-05-01 16:00:00,
2013-05-01 11:30:00,76.1,29.5,29.77,SE,135,3.0,16.0,18,0.00,,,-99.99,WeatherLink 5.7,2013-05-01 16:30:00,
2013-05-01 12:00:00,75.9,29.3,29.77,ESE,112,4.0,16.0,18,0.01,,,-99.99,WeatherLink 5.7,2013-05-01 17:00:00,
2013-05-01 12:30:00,76.3,29.7,29.75,ESE,112,4.0,16.0,18,0.01,,,-99.99,WeatherLink 5.7,2013-05-01 17:30:00,
2013-05-01 13:00:00,79.3,32.1,29.75,ESE,112,5.0,18.0,18,0.00,,,-99.99,WeatherLink 5.7,2013-05-01 18:00:00,
2013-05-01 13:30:00,76.1,29.5,29.75,East,90,5.0,16.0,18,0.17,,,-99.99,WeatherLink 5.7,2013-05-01 18:30:00,
2013-05-01 14:00:00,74.7,29.7,29.73,ESE,112,3.0,12.0,19,0.25,,,-99.99,WeatherLink 5.7,2013-05-01 19:00:00,
2013-05-01 14:30:00,74.2,30.5,29.73,ESE,112,3.0,19.0,20,0.08,,,-99.99,WeatherLink 5.7,2013-05-01 19:30:00,
2013-05-01 15:00:00,72.5,29.1,29.71,East,90,3.0,18.0,20,0.32,,,-99.99,WeatherLink 5.7,2013-05-01 20:00:00,
2013-05-01 15:30:00,73.0,29.5,29.72,East,90,5.0,16.0,20,0.43,,,-99.99,WeatherLink 5.7,2013-05-01 20:30:00,
2013-05-01 16:00:00,72.2,30.1,29.70,East,90,5.0,15.0,21,0.21,,,-99.99,WeatherLink 5.7,2013-05-01 21:00:00,
2013-05-01 16:30:00,72.0,29.9,29.72,East,90,5.0,16.0,21,0.24,,,-99.99,WeatherLink 5.7,2013-05-01 21:30:00,
2013-05-01 17:00:00,69.6,29.0,29.75,NNW,337,3.0,12.0,22,0.30,,,-99.99,WeatherLink 5.7,2013-05-01 22:00:00,
2013-05-01 17:30:00,66.1,26.1,29.73,NW,315,3.0,17.0,22,0.43,,,-99.99,WeatherLink 5.7,2013-05-01 22:30:00,
2013-05-01 18:00:00,66.0,27.1,29.75,NNW,337,2.0,12.0,23,0.67,,,-99.99,WeatherLink 5.7,2013-05-01 23:00:00,
2013-05-01 18:30:00,66.3,27.4,29.73,WNW,292,1.0,9.0,23,0.78,,,-99.99,WeatherLink 5.7,2013-05-01 23:30:00,
2013-05-01 19:00:00,66.0,27.1,29.73,ENE,67,2.0,9.0,23,0.50,,,-99.99,WeatherLink 5.7,2013-05-02 00:00:00,
2013-05-01 19:30:00,66.1,27.2,29.76,NW,315,0.0,7.0,23,0.24,,,-99.99,WeatherLink 5.7,2013-05-02 00:30:00,
2013-05-01 20:00:00,66.0,27.1,29.79,NE,45,0.0,9.0,23,0.34,,,-99.99,WeatherLink 5.7,2013-05-02 01:00:00,
2013-05-01 20:30:00,66.1,27.2,29.77,ENE,67,0.0,4.0,23,0.61,,,-99.99,WeatherLink 5.7,2013-05-02 01:30:00,
2013-05-01 21:00:00,65.6,26.8,29.77,ENE,67,1.0,6.0,23,0.61,,,-99.99,WeatherLink 5.7,2013-05-02 02:00:00,
2013-05-01 21:30:00,65.2,27.5,29.76,East,90,2.0,7.0,24,0.30,,,-99.99,WeatherLink 5.7,2013-05-02 02:30:00,
2013-05-01 22:00:00,64.4,26.8,29.76,East,90,1.0,13.0,24,0.16,,,-99.99,WeatherLink 5.7,2013-05-02 03:00:00,
2013-05-01 22:30:00,64.1,26.5,29.77,East,90,3.0,12.0,24,0.11,,,-99.99,WeatherLink 5.7,2013-05-02 03:30:00,
2013-05-01 23:00:00,64.3,26.7,29.75,ENE,67,1.0,7.0,24,0.05,,,-99.99,WeatherLink 5.7,2013-05-02 04:00:00,
2013-05-01 23:30:00,64.3,26.7,29.75,East,90,1.0,9.0,24,0.02,,,-99.99,WeatherLink 5.7,2013-05-02 04:30:00,